sensor_id;sensor_type;location;lat;lon;timestamp;pressure;altitude;pressure_sealevel;temperature;humidity
62164;BME280;48149;51.132;7.178;2023-04-19T00:00:27;99600.16;;;22.34;42.25
62164;BME280;48149;51.132;7.178;2023-04-19T00:02:52;99602.25;;;21.92;42.46
62164;BME280;48149;51.132;7.178;2023-04-19T00:05:18;99599.53;;;20.83;45.63
62164;BME280;48149;51.132;7.178;2023-04-19T00:07:44;99594.66;;;20.70;44.54
62164;BME280;48149;51.132;7.178;2023-04-19T00:10:11;99594.03;;;21.37;44.17
62164;BME280;48149;51.132;7.178;2023-04-19T00:12:36;99594.50;;;21.91;42.60
62164;BME280;48149;51.132;7.178;2023-04-19T00:15:01;99589.97;;;21.29;43.85
62164;BME280;48149;51.132;7.178;2023-04-19T00:17:26;99590.09;;;20.65;44.89
62164;BME280;48149;51.132;7.178;2023-04-19T00:19:51;99580.91;;;21.97;42.83
62164;BME280;48149;51.132;7.178;2023-04-19T00:22:17;99584.13;;;22.04;42.72
62164;BME280;48149;51.132;7.178;2023-04-19T00:24:42;99583.44;;;21.57;42.96
62164;BME280;48149;51.132;7.178;2023-04-19T00:27:07;99579.34;;;22.01;43.09
62164;BME280;48149;51.132;7.178;2023-04-19T00:29:32;99583.63;;;22.12;41.55
62164;BME280;48149;51.132;7.178;2023-04-19T00:31:58;99590.00;;;23.22;40.23
62164;BME280;48149;51.132;7.178;2023-04-19T00:34:23;99589.44;;;21.94;41.13
62164;BME280;48149;51.132;7.178;2023-04-19T00:36:48;99586.56;;;22.97;40.56
62164;BME280;48149;51.132;7.178;2023-04-19T00:39:13;99589.81;;;22.78;40.50
62164;BME280;48149;51.132;7.178;2023-04-19T00:41:39;99586.59;;;22.61;40.78
62164;BME280;48149;51.132;7.178;2023-04-19T00:44:04;99589.53;;;22.80;41.73
62164;BME280;48149;51.132;7.178;2023-04-19T00:46:30;99588.41;;;23.16;39.88
62164;BME280;48149;51.132;7.178;2023-04-19T00:48:55;99588.47;;;22.56;41.82
62164;BME280;48149;51.132;7.178;2023-04-19T00:51:22;99588.72;;;22.59;41.23
62164;BME280;48149;51.132;7.178;2023-04-19T00:53:47;99583.41;;;22.74;40.54
62164;BME280;48149;51.132;7.178;2023-04-19T00:56:13;99578.53;;;22.16;40.60
62164;BME280;48149;51.132;7.178;2023-04-19T00:58:39;99582.84;;;22.93;40.34
62164;BME280;48149;51.132;7.178;2023-04-19T01:01:04;99578.56;;;22.26;41.42
62164;BME280;48149;51.132;7.178;2023-04-19T01:03:30;99576.88;;;23.31;39.72
62164;BME280;48149;51.132;7.178;2023-04-19T01:05:55;99579.88;;;22.03;41.94
62164;BME280;48149;51.132;7.178;2023-04-19T01:08:22;99570.78;;;23.15;40.62
62164;BME280;48149;51.132;7.178;2023-04-19T01:10:47;99571.13;;;22.78;40.34
62164;BME280;48149;51.132;7.178;2023-04-19T01:13:13;99569.75;;;22.61;41.22
62164;BME280;48149;51.132;7.178;2023-04-19T01:15:38;99569.75;;;22.20;41.16
62164;BME280;48149;51.132;7.178;2023-04-19T01:18:03;99566.78;;;23.77;39.20
62164;BME280;48149;51.132;7.178;2023-04-19T01:20:28;99563.91;;;22.33;40.57
62164;BME280;48149;51.132;7.178;2023-04-19T01:22:54;99559.09;;;22.30;41.34
62164;BME280;48149;51.132;7.178;2023-04-19T01:25:19;99563.88;;;21.93;42.20
62164;BME280;48149;51.132;7.178;2023-04-19T01:27:44;99563.44;;;21.54;42.81
62164;BME280;48149;51.132;7.178;2023-04-19T01:30:10;99573.53;;;22.50;41.15
62164;BME280;48149;51.132;7.178;2023-04-19T01:32:35;99572.53;;;21.58;42.11
62164;BME280;48149;51.132;7.178;2023-04-19T01:35:00;99564.63;;;21.84;42.56
62164;BME280;48149;51.132;7.178;2023-04-19T01:37:25;99563.19;;;21.56;42.83
62164;BME280;48149;51.132;7.178;2023-04-19T01:39:51;99563.38;;;22.42;41.92
62164;BME280;48149;51.132;7.178;2023-04-19T01:42:16;99556.44;;;22.20;42.24
62164;BME280;48149;51.132;7.178;2023-04-19T01:44:41;99558.28;;;22.00;42.33
62164;BME280;48149;51.132;7.178;2023-04-19T01:47:06;99550.56;;;22.39;41.60
62164;BME280;48149;51.132;7.178;2023-04-19T01:49:31;99553.19;;;22.03;42.84
62164;BME280;48149;51.132;7.178;2023-04-19T01:51:57;99547.63;;;22.75;41.82
62164;BME280;48149;51.132;7.178;2023-04-19T01:54:22;99554.03;;;22.14;42.09
62164;BME280;48149;51.132;7.178;2023-04-19T01:56:47;99543.53;;;21.77;43.09
62164;BME280;48149;51.132;7.178;2023-04-19T01:59:13;99550.28;;;22.35;42.66
62164;BME280;48149;51.132;7.178;2023-04-19T02:01:38;99548.38;;;22.00;43.36
62164;BME280;48149;51.132;7.178;2023-04-19T02:04:03;99543.66;;;22.38;42.57
62164;BME280;48149;51.132;7.178;2023-04-19T02:06:29;99548.69;;;22.74;41.06
62164;BME280;48149;51.132;7.178;2023-04-19T02:08:55;99542.97;;;23.21;40.47
62164;BME280;48149;51.132;7.178;2023-04-19T02:11:21;99543.56;;;22.98;39.86
62164;BME280;48149;51.132;7.178;2023-04-19T02:13:46;99555.91;;;22.69;41.08
62164;BME280;48149;51.132;7.178;2023-04-19T02:16:11;99547.94;;;20.89;45.17
62164;BME280;48149;51.132;7.178;2023-04-19T02:18:36;99547.59;;;22.60;42.81
62164;BME280;48149;51.132;7.178;2023-04-19T02:21:05;99550.00;;;22.57;42.86
62164;BME280;48149;51.132;7.178;2023-04-19T02:23:31;99549.78;;;22.78;43.14
62164;BME280;48149;51.132;7.178;2023-04-19T02:25:56;99548.34;;;23.01;41.73
62164;BME280;48149;51.132;7.178;2023-04-19T02:28:21;99557.16;;;23.81;39.61
62164;BME280;48149;51.132;7.178;2023-04-19T02:30:47;99550.56;;;20.84;45.94
62164;BME280;48149;51.132;7.178;2023-04-19T02:33:13;99550.56;;;22.08;42.68
62164;BME280;48149;51.132;7.178;2023-04-19T02:35:38;99547.59;;;22.60;43.59
62164;BME280;48149;51.132;7.178;2023-04-19T02:38:03;99546.81;;;22.80;41.24
62164;BME280;48149;51.132;7.178;2023-04-19T02:40:29;99546.81;;;22.29;42.53
62164;BME280;48149;51.132;7.178;2023-04-19T02:42:54;99543.00;;;23.16;40.93
62164;BME280;48149;51.132;7.178;2023-04-19T02:45:20;99544.22;;;23.39;39.77
62164;BME280;48149;51.132;7.178;2023-04-19T02:47:45;99546.78;;;23.69;39.45
62164;BME280;48149;51.132;7.178;2023-04-19T02:50:11;99538.56;;;22.81;41.50
62164;BME280;48149;51.132;7.178;2023-04-19T02:52:36;99543.22;;;21.58;44.26
62164;BME280;48149;51.132;7.178;2023-04-19T02:55:01;99540.34;;;21.85;44.39
62164;BME280;48149;51.132;7.178;2023-04-19T02:57:28;99545.91;;;21.68;45.48
62164;BME280;48149;51.132;7.178;2023-04-19T02:59:53;99543.34;;;22.04;44.92
62164;BME280;48149;51.132;7.178;2023-04-19T03:02:18;99541.50;;;22.50;43.76
62164;BME280;48149;51.132;7.178;2023-04-19T03:04:44;99536.28;;;21.57;45.20
62164;BME280;48149;51.132;7.178;2023-04-19T03:07:09;99539.66;;;22.65;43.58
62164;BME280;48149;51.132;7.178;2023-04-19T03:09:36;99539.09;;;22.78;42.99
62164;BME280;48149;51.132;7.178;2023-04-19T03:12:01;99538.88;;;20.90;47.48
62164;BME280;48149;51.132;7.178;2023-04-19T03:14:26;99525.09;;;21.55;46.52
62164;BME280;48149;51.132;7.178;2023-04-19T03:16:51;99526.53;;;22.39;44.93
62164;BME280;48149;51.132;7.178;2023-04-19T03:19:16;99528.16;;;22.14;44.57
62164;BME280;48149;51.132;7.178;2023-04-19T03:21:42;99524.91;;;21.10;47.23
62164;BME280;48149;51.132;7.178;2023-04-19T03:24:07;99519.16;;;21.33;46.48
62164;BME280;48149;51.132;7.178;2023-04-19T03:26:33;99514.38;;;21.35;46.69
62164;BME280;48149;51.132;7.178;2023-04-19T03:28:58;99511.03;;;21.80;45.91
62164;BME280;48149;51.132;7.178;2023-04-19T03:31:23;99511.25;;;21.63;47.31
62164;BME280;48149;51.132;7.178;2023-04-19T03:33:48;99510.47;;;21.78;46.78
62164;BME280;48149;51.132;7.178;2023-04-19T03:36:14;99508.09;;;21.71;45.94
62164;BME280;48149;51.132;7.178;2023-04-19T03:38:40;99518.16;;;21.49;45.20
62164;BME280;48149;51.132;7.178;2023-04-19T03:41:11;99513.88;;;21.48;47.21
62164;BME280;48149;51.132;7.178;2023-04-19T03:43:41;99511.13;;;21.23;46.89
62164;BME280;48149;51.132;7.178;2023-04-19T03:46:07;99508.75;;;21.32;46.81
62164;BME280;48149;51.132;7.178;2023-04-19T03:48:32;99508.34;;;21.65;46.82
62164;BME280;48149;51.132;7.178;2023-04-19T03:50:59;99510.59;;;21.21;46.26
62164;BME280;48149;51.132;7.178;2023-04-19T03:53:24;99499.63;;;21.12;47.84
62164;BME280;48149;51.132;7.178;2023-04-19T03:55:50;99496.84;;;21.54;46.70
62164;BME280;48149;51.132;7.178;2023-04-19T03:58:15;99498.81;;;21.89;46.56
62164;BME280;48149;51.132;7.178;2023-04-19T04:00:40;99494.47;;;21.73;45.15
62164;BME280;48149;51.132;7.178;2023-04-19T04:03:07;99496.66;;;22.06;44.05
62164;BME280;48149;51.132;7.178;2023-04-19T04:05:33;99499.34;;;22.47;44.23
62164;BME280;48149;51.132;7.178;2023-04-19T04:07:58;99505.75;;;22.20;43.82
62164;BME280;48149;51.132;7.178;2023-04-19T04:10:23;99501.19;;;22.46;44.39
62164;BME280;48149;51.132;7.178;2023-04-19T04:12:49;99509.22;;;22.46;43.95
62164;BME280;48149;51.132;7.178;2023-04-19T04:15:14;99504.88;;;21.69;45.54
62164;BME280;48149;51.132;7.178;2023-04-19T04:17:39;99510.78;;;21.09;46.28
62164;BME280;48149;51.132;7.178;2023-04-19T04:20:04;99507.88;;;21.93;44.66
62164;BME280;48149;51.132;7.178;2023-04-19T04:22:31;99502.47;;;20.54;48.59
62164;BME280;48149;51.132;7.178;2023-04-19T04:24:57;99506.25;;;21.87;44.27
62164;BME280;48149;51.132;7.178;2023-04-19T04:27:23;99504.13;;;20.65;46.36
62164;BME280;48149;51.132;7.178;2023-04-19T04:29:48;99514.28;;;22.32;44.07
62164;BME280;48149;51.132;7.178;2023-04-19T04:34:42;99505.69;;;21.80;44.38
62164;BME280;48149;51.132;7.178;2023-04-19T04:37:07;99501.28;;;21.28;45.90
62164;BME280;48149;51.132;7.178;2023-04-19T04:39:32;99511.03;;;21.80;44.06
62164;BME280;48149;51.132;7.178;2023-04-19T04:42:03;99500.69;;;22.14;43.02
62164;BME280;48149;51.132;7.178;2023-04-19T04:44:29;99504.06;;;21.59;44.38
62164;BME280;48149;51.132;7.178;2023-04-19T04:46:54;99502.69;;;21.51;43.96
62164;BME280;48149;51.132;7.178;2023-04-19T04:49:19;99501.19;;;21.91;43.83
62164;BME280;48149;51.132;7.178;2023-04-19T04:51:45;99504.63;;;20.57;45.62
62164;BME280;48149;51.132;7.178;2023-04-19T04:54:11;99496.81;;;20.87;44.06
62164;BME280;48149;51.132;7.178;2023-04-19T04:56:36;99502.41;;;20.86;45.13
62164;BME280;48149;51.132;7.178;2023-04-19T04:59:02;99499.75;;;21.43;43.46
62164;BME280;48149;51.132;7.178;2023-04-19T05:01:27;99497.63;;;21.45;44.77
62164;BME280;48149;51.132;7.178;2023-04-19T05:03:52;99488.38;;;21.05;43.88
62164;BME280;48149;51.132;7.178;2023-04-19T05:06:17;99504.72;;;20.72;44.49
62164;BME280;48149;51.132;7.178;2023-04-19T05:08:43;99507.56;;;21.07;44.97
62164;BME280;48149;51.132;7.178;2023-04-19T05:11:08;99504.03;;;21.49;43.49
62164;BME280;48149;51.132;7.178;2023-04-19T05:13:33;99498.28;;;20.68;43.67
62164;BME280;48149;51.132;7.178;2023-04-19T05:15:59;99496.28;;;20.90;43.69
62164;BME280;48149;51.132;7.178;2023-04-19T05:18:25;99493.06;;;19.78;45.89
62164;BME280;48149;51.132;7.178;2023-04-19T05:20:50;99496.34;;;20.53;43.46
62164;BME280;48149;51.132;7.178;2023-04-19T05:23:15;99504.19;;;21.17;43.45
62164;BME280;48149;51.132;7.178;2023-04-19T05:25:40;99497.84;;;20.39;44.41
62164;BME280;48149;51.132;7.178;2023-04-19T05:28:06;99498.44;;;20.46;43.72
62164;BME280;48149;51.132;7.178;2023-04-19T05:30:31;99503.28;;;21.06;42.71
62164;BME280;48149;51.132;7.178;2023-04-19T05:32:56;99501.88;;;19.83;44.42
62164;BME280;48149;51.132;7.178;2023-04-19T05:35:21;99506.47;;;20.56;44.15
62164;BME280;48149;51.132;7.178;2023-04-19T05:37:47;99494.72;;;20.15;43.64
62164;BME280;48149;51.132;7.178;2023-04-19T05:40:13;99501.59;;;20.43;43.52
62164;BME280;48149;51.132;7.178;2023-04-19T05:42:38;99495.25;;;20.49;42.78
62164;BME280;48149;51.132;7.178;2023-04-19T05:45:04;99495.81;;;21.03;42.88
62164;BME280;48149;51.132;7.178;2023-04-19T05:47:30;99496.78;;;21.29;41.90
62164;BME280;48149;51.132;7.178;2023-04-19T05:49:55;99498.53;;;20.61;42.46
62164;BME280;48149;51.132;7.178;2023-04-19T05:52:21;99496.34;;;20.95;41.76
62164;BME280;48149;51.132;7.178;2023-04-19T05:54:46;99496.16;;;21.12;40.36
62164;BME280;48149;51.132;7.178;2023-04-19T05:57:11;99496.78;;;20.82;41.71
62164;BME280;48149;51.132;7.178;2023-04-19T05:59:37;99491.75;;;20.12;42.62
62164;BME280;48149;51.132;7.178;2023-04-19T06:02:03;99489.94;;;20.49;42.60
62164;BME280;48149;51.132;7.178;2023-04-19T06:04:28;99495.75;;;20.88;41.69
62164;BME280;48149;51.132;7.178;2023-04-19T06:06:54;99491.09;;;21.10;40.62
62164;BME280;48149;51.132;7.178;2023-04-19T06:09:19;99490.13;;;21.32;40.23
62164;BME280;48149;51.132;7.178;2023-04-19T06:11:45;99486.63;;;20.74;41.11
62164;BME280;48149;51.132;7.178;2023-04-19T06:14:10;99492.56;;;20.86;41.14
62164;BME280;48149;51.132;7.178;2023-04-19T06:16:37;99493.41;;;21.64;39.63
62164;BME280;48149;51.132;7.178;2023-04-19T06:19:02;99497.69;;;20.98;39.68
62164;BME280;48149;51.132;7.178;2023-04-19T06:21:30;99499.94;;;20.32;40.63
62164;BME280;48149;51.132;7.178;2023-04-19T06:23:57;99487.50;;;21.42;39.47
62164;BME280;48149;51.132;7.178;2023-04-19T06:26:22;99488.72;;;20.67;40.22
62164;BME280;48149;51.132;7.178;2023-04-19T06:28:47;99489.53;;;21.14;39.59
62164;BME280;48149;51.132;7.178;2023-04-19T06:31:13;99488.31;;;21.57;38.02
62164;BME280;48149;51.132;7.178;2023-04-19T06:33:38;99488.53;;;21.36;37.97
62164;BME280;48149;51.132;7.178;2023-04-19T06:36:05;99490.09;;;21.26;38.17
62164;BME280;48149;51.132;7.178;2023-04-19T06:38:30;99495.22;;;21.53;37.26
62164;BME280;48149;51.132;7.178;2023-04-19T06:40:56;99495.19;;;21.38;37.42
62164;BME280;48149;51.132;7.178;2023-04-19T06:43:21;99491.47;;;21.39;38.48
62164;BME280;48149;51.132;7.178;2023-04-19T06:45:48;99482.81;;;19.91;39.29
62164;BME280;48149;51.132;7.178;2023-04-19T06:48:13;99489.81;;;20.71;38.80
62164;BME280;48149;51.132;7.178;2023-04-19T06:50:38;99492.97;;;22.12;36.40
62164;BME280;48149;51.132;7.178;2023-04-19T06:53:03;99487.16;;;21.23;37.83
62164;BME280;48149;51.132;7.178;2023-04-19T07:04:39;99483.53;;;22.80;34.78
62164;BME280;48149;51.132;7.178;2023-04-19T07:07:04;99484.91;;;21.87;36.42
62164;BME280;48149;51.132;7.178;2023-04-19T07:09:30;99486.25;;;22.35;35.58
62164;BME280;48149;51.132;7.178;2023-04-19T07:11:55;99484.00;;;21.41;35.71
62164;BME280;48149;51.132;7.178;2023-04-19T07:14:21;99477.97;;;22.62;35.86
62164;BME280;48149;51.132;7.178;2023-04-19T07:16:47;99489.47;;;22.07;36.46
62164;BME280;48149;51.132;7.178;2023-04-19T07:19:13;99483.00;;;21.52;36.50
62164;BME280;48149;51.132;7.178;2023-04-19T07:21:38;99482.81;;;22.04;36.83
62164;BME280;48149;51.132;7.178;2023-04-19T07:24:06;99476.13;;;22.37;36.21
62164;BME280;48149;51.132;7.178;2023-04-19T07:26:32;99480.66;;;22.31;35.44
62164;BME280;48149;51.132;7.178;2023-04-19T07:28:58;99472.91;;;21.74;35.67
62164;BME280;48149;51.132;7.178;2023-04-19T07:31:23;99478.44;;;22.89;34.47
62164;BME280;48149;51.132;7.178;2023-04-19T07:33:49;99473.75;;;22.30;34.54
62164;BME280;48149;51.132;7.178;2023-04-19T07:36:14;99472.06;;;22.60;33.85
62164;BME280;48149;51.132;7.178;2023-04-19T07:38:41;99466.94;;;23.53;33.32
62164;BME280;48149;51.132;7.178;2023-04-19T07:41:06;99465.16;;;22.49;33.50
62164;BME280;48149;51.132;7.178;2023-04-19T07:43:32;99473.13;;;22.84;33.59
62164;BME280;48149;51.132;7.178;2023-04-19T07:45:59;99465.41;;;21.56;34.19
62164;BME280;48149;51.132;7.178;2023-04-19T07:48:24;99464.66;;;22.47;34.49
62164;BME280;48149;51.132;7.178;2023-04-19T07:50:49;99468.38;;;23.30;33.24
62164;BME280;48149;51.132;7.178;2023-04-19T07:53:15;99463.84;;;21.70;34.32
62164;BME280;48149;51.132;7.178;2023-04-19T08:04:39;99464.34;;;22.78;33.21
62164;BME280;48149;51.132;7.178;2023-04-19T08:07:04;99450.97;;;21.27;34.59
62164;BME280;48149;51.132;7.178;2023-04-19T08:09:32;99448.69;;;23.99;31.69
62164;BME280;48149;51.132;7.178;2023-04-19T08:14:46;99452.59;;;23.82;31.67
62164;BME280;48149;51.132;7.178;2023-04-19T08:17:13;99455.63;;;21.92;32.92
62164;BME280;48149;51.132;7.178;2023-04-19T08:19:38;99458.94;;;22.94;31.96
62164;BME280;48149;51.132;7.178;2023-04-19T08:22:03;99469.41;;;22.70;32.55
62164;BME280;48149;51.132;7.178;2023-04-19T08:24:29;99474.31;;;23.17;31.49
62164;BME280;48149;51.132;7.178;2023-04-19T08:26:55;99467.47;;;23.01;31.75
62164;BME280;48149;51.132;7.178;2023-04-19T08:29:20;99468.06;;;22.72;31.68
62164;BME280;48149;51.132;7.178;2023-04-19T08:31:46;99470.41;;;22.99;31.18
62164;BME280;48149;51.132;7.178;2023-04-19T08:34:11;99466.78;;;21.74;31.57
62164;BME280;48149;51.132;7.178;2023-04-19T08:36:36;99468.19;;;23.16;31.51
62164;BME280;48149;51.132;7.178;2023-04-19T08:39:02;99468.34;;;22.71;31.20
62164;BME280;48149;51.132;7.178;2023-04-19T08:41:27;99462.00;;;22.37;31.67
62164;BME280;48149;51.132;7.178;2023-04-19T08:43:54;99465.16;;;21.88;31.57
62164;BME280;48149;51.132;7.178;2023-04-19T08:46:20;99459.06;;;22.23;31.63
62164;BME280;48149;51.132;7.178;2023-04-19T08:48:47;99466.75;;;23.34;31.18
62164;BME280;48149;51.132;7.178;2023-04-19T08:51:14;99470.94;;;22.96;31.11
62164;BME280;48149;51.132;7.178;2023-04-19T08:53:40;99458.78;;;21.84;31.19
62164;BME280;48149;51.132;7.178;2023-04-19T08:56:06;99457.69;;;22.71;30.65
62164;BME280;48149;51.132;7.178;2023-04-19T08:58:31;99448.59;;;21.41;31.30
62164;BME280;48149;51.132;7.178;2023-04-19T09:00:57;99460.09;;;22.62;31.43
62164;BME280;48149;51.132;7.178;2023-04-19T09:03:22;99461.06;;;22.92;30.47
62164;BME280;48149;51.132;7.178;2023-04-19T09:05:49;99457.69;;;22.51;30.80
62164;BME280;48149;51.132;7.178;2023-04-19T09:08:22;99441.97;;;21.73;31.83
62164;BME280;48149;51.132;7.178;2023-04-19T09:10:54;99441.59;;;22.86;30.12
62164;BME280;48149;51.132;7.178;2023-04-19T09:13:20;99432.06;;;24.07;28.95
62164;BME280;48149;51.132;7.178;2023-04-19T09:15:45;99433.69;;;23.25;29.60
62164;BME280;48149;51.132;7.178;2023-04-19T09:18:10;99439.38;;;23.13;29.71
62164;BME280;48149;51.132;7.178;2023-04-19T09:20:36;99432.22;;;23.53;29.01
62164;BME280;48149;51.132;7.178;2023-04-19T09:23:05;99430.66;;;23.47;29.72
62164;BME280;48149;51.132;7.178;2023-04-19T09:34:49;99426.59;;;26.37;25.79
62164;BME280;48149;51.132;7.178;2023-04-19T09:37:15;99412.81;;;27.92;24.76
62164;BME280;48149;51.132;7.178;2023-04-19T09:39:40;99426.16;;;28.28;24.05
62164;BME280;48149;51.132;7.178;2023-04-19T09:42:06;99425.28;;;26.35;25.46
62164;BME280;48149;51.132;7.178;2023-04-19T09:44:31;99428.09;;;26.71;25.20
62164;BME280;48149;51.132;7.178;2023-04-19T09:46:59;99434.78;;;27.00;24.75
62164;BME280;48149;51.132;7.178;2023-04-19T09:49:24;99428.31;;;28.48;24.20
62164;BME280;48149;51.132;7.178;2023-04-19T09:51:51;99432.69;;;28.05;23.30
62164;BME280;48149;51.132;7.178;2023-04-19T09:54:17;99433.50;;;29.49;23.37
62164;BME280;48149;51.132;7.178;2023-04-19T09:56:44;99426.50;;;29.66;21.93
62164;BME280;48149;51.132;7.178;2023-04-19T09:59:09;99422.91;;;28.79;22.60
62164;BME280;48149;51.132;7.178;2023-04-19T10:33:57;99400.16;;;33.70;19.22
62164;BME280;48149;51.132;7.178;2023-04-19T10:36:23;99401.97;;;28.93;20.58
62164;BME280;48149;51.132;7.178;2023-04-19T10:38:51;99400.47;;;29.18;20.64
62164;BME280;48149;51.132;7.178;2023-04-19T10:41:17;99403.69;;;30.27;20.35
62164;BME280;48149;51.132;7.178;2023-04-19T10:46:54;99392.00;;;28.06;21.33
62164;BME280;48149;51.132;7.178;2023-04-19T10:48:56;99397.78;;;31.21;19.93
62164;BME280;48149;51.132;7.178;2023-04-19T10:51:23;99406.69;;;30.34;19.36
62164;BME280;48149;51.132;7.178;2023-04-19T10:53:58;99403.63;;;29.89;19.50
62164;BME280;48149;51.132;7.178;2023-04-19T11:01:32;99395.19;;;28.48;20.45
62164;BME280;48149;51.132;7.178;2023-04-19T11:03:58;99399.66;;;29.78;19.83
62164;BME280;48149;51.132;7.178;2023-04-19T11:06:24;99402.81;;;32.05;18.65
62164;BME280;48149;51.132;7.178;2023-04-19T11:08:52;99388.59;;;31.76;18.93
62164;BME280;48149;51.132;7.178;2023-04-19T11:11:17;99383.81;;;31.19;18.79
62164;BME280;48149;51.132;7.178;2023-04-19T11:22:52;99382.44;;;30.84;18.42
62164;BME280;48149;51.132;7.178;2023-04-19T11:25:19;99376.41;;;31.28;18.80
62164;BME280;48149;51.132;7.178;2023-04-19T11:27:45;99383.88;;;30.81;18.42
62164;BME280;48149;51.132;7.178;2023-04-19T11:32:37;99371.59;;;31.34;18.35
62164;BME280;48149;51.132;7.178;2023-04-19T11:35:08;99367.28;;;30.41;18.73
62164;BME280;48149;51.132;7.178;2023-04-19T11:37:34;99371.22;;;32.82;17.52
62164;BME280;48149;51.132;7.178;2023-04-19T11:39:59;99366.94;;;30.34;18.63
62164;BME280;48149;51.132;7.178;2023-04-19T11:42:25;99374.13;;;32.04;18.45
62164;BME280;48149;51.132;7.178;2023-04-19T11:44:50;99361.13;;;29.43;18.72
62164;BME280;48149;51.132;7.178;2023-04-19T11:47:16;99362.06;;;32.14;17.72
62164;BME280;48149;51.132;7.178;2023-04-19T11:49:41;99365.47;;;33.79;17.33
62164;BME280;48149;51.132;7.178;2023-04-19T11:52:07;99353.88;;;31.03;17.58
62164;BME280;48149;51.132;7.178;2023-04-19T11:54:32;99351.66;;;30.09;17.89
62164;BME280;48149;51.132;7.178;2023-04-19T11:57:01;99343.63;;;31.50;17.10
62164;BME280;48149;51.132;7.178;2023-04-19T11:59:30;99347.28;;;28.84;18.11
62164;BME280;48149;51.132;7.178;2023-04-19T12:02:03;99345.44;;;29.36;18.45
62164;BME280;48149;51.132;7.178;2023-04-19T12:04:28;99335.75;;;31.37;17.80
62164;BME280;48149;51.132;7.178;2023-04-19T12:32:29;99308.38;;;31.17;16.75
62164;BME280;48149;51.132;7.178;2023-04-19T12:34:55;99312.50;;;32.62;15.63
62164;BME280;48149;51.132;7.178;2023-04-19T12:37:20;99309.22;;;32.44;15.35
62164;BME280;48149;51.132;7.178;2023-04-19T12:39:45;99307.19;;;32.41;15.50
62164;BME280;48149;51.132;7.178;2023-04-19T12:42:11;99317.63;;;34.53;14.58
62164;BME280;48149;51.132;7.178;2023-04-19T12:44:36;99304.84;;;31.58;15.42
62164;BME280;48149;51.132;7.178;2023-04-19T12:47:01;99307.72;;;33.98;14.65
62164;BME280;48149;51.132;7.178;2023-04-19T12:49:26;99300.19;;;34.38;15.24
62164;BME280;48149;51.132;7.178;2023-04-19T12:51:52;99312.50;;;33.57;15.12
62164;BME280;48149;51.132;7.178;2023-04-19T13:03:25;99290.06;;;33.45;14.06
62164;BME280;48149;51.132;7.178;2023-04-19T13:05:52;99276.31;;;33.38;14.70
62164;BME280;48149;51.132;7.178;2023-04-19T13:08:17;99269.66;;;31.58;15.63
62164;BME280;48149;51.132;7.178;2023-04-19T13:10:46;99285.44;;;32.90;14.51
62164;BME280;48149;51.132;7.178;2023-04-19T13:13:11;99290.56;;;32.67;14.61
62164;BME280;48149;51.132;7.178;2023-04-19T13:15:37;99292.03;;;31.80;14.63
62164;BME280;48149;51.132;7.178;2023-04-19T13:18:03;99284.06;;;30.76;15.53
62164;BME280;48149;51.132;7.178;2023-04-19T13:20:29;99279.31;;;31.92;15.14
62164;BME280;48149;51.132;7.178;2023-04-19T13:22:54;99276.22;;;32.54;15.02
62164;BME280;48149;51.132;7.178;2023-04-19T13:25:20;99273.94;;;33.36;14.40
62164;BME280;48149;51.132;7.178;2023-04-19T13:27:45;99275.44;;;32.94;15.32
62164;BME280;48149;51.132;7.178;2023-04-19T13:30:11;99274.34;;;34.28;14.96
62164;BME280;48149;51.132;7.178;2023-04-19T13:32:36;99266.66;;;32.57;14.96
62164;BME280;48149;51.132;7.178;2023-04-19T13:35:01;99255.88;;;33.00;16.03
62164;BME280;48149;51.132;7.178;2023-04-19T13:37:27;99245.69;;;34.00;15.07
62164;BME280;48149;51.132;7.178;2023-04-19T13:39:52;99245.94;;;36.06;14.21
62164;BME280;48149;51.132;7.178;2023-04-19T13:42:17;99245.69;;;32.17;16.36
62164;BME280;48149;51.132;7.178;2023-04-19T13:44:43;99247.31;;;34.70;15.26
62164;BME280;48149;51.132;7.178;2023-04-19T13:47:08;99240.13;;;32.26;15.48
62164;BME280;48149;51.132;7.178;2023-04-19T13:49:33;99237.59;;;34.35;15.13
62164;BME280;48149;51.132;7.178;2023-04-19T13:51:58;99229.09;;;33.26;14.91
62164;BME280;48149;51.132;7.178;2023-04-19T13:54:24;99225.81;;;31.20;16.08
62164;BME280;48149;51.132;7.178;2023-04-19T13:56:49;99226.72;;;35.53;14.16
62164;BME280;48149;51.132;7.178;2023-04-19T13:59:14;99225.75;;;32.90;14.30
62164;BME280;48149;51.132;7.178;2023-04-19T14:01:40;99224.47;;;31.26;14.80
62164;BME280;48149;51.132;7.178;2023-04-19T14:04:05;99237.53;;;32.42;14.59
62164;BME280;48149;51.132;7.178;2023-04-19T14:06:31;99226.63;;;33.81;14.42
62164;BME280;48149;51.132;7.178;2023-04-19T14:08:56;99219.34;;;33.85;14.38
62164;BME280;48149;51.132;7.178;2023-04-19T14:11:22;99228.38;;;33.73;14.64
62164;BME280;48149;51.132;7.178;2023-04-19T14:13:49;99215.81;;;31.00;15.32
62164;BME280;48149;51.132;7.178;2023-04-19T14:16:14;99215.09;;;31.93;15.45
62164;BME280;48149;51.132;7.178;2023-04-19T14:18:39;99214.22;;;32.53;14.91
62164;BME280;48149;51.132;7.178;2023-04-19T14:21:05;99204.00;;;33.02;15.53
62164;BME280;48149;51.132;7.178;2023-04-19T14:23:31;99212.22;;;33.49;15.04
62164;BME280;48149;51.132;7.178;2023-04-19T14:25:56;99205.94;;;33.60;14.09
62164;BME280;48149;51.132;7.178;2023-04-19T14:28:21;99199.97;;;33.39;14.85
62164;BME280;48149;51.132;7.178;2023-04-19T14:30:47;99200.03;;;33.27;14.71
62164;BME280;48149;51.132;7.178;2023-04-19T14:33:12;99196.06;;;33.68;14.84
62164;BME280;48149;51.132;7.178;2023-04-19T14:35:37;99190.09;;;33.47;14.25
62164;BME280;48149;51.132;7.178;2023-04-19T14:38:02;99189.22;;;33.74;14.54
62164;BME280;48149;51.132;7.178;2023-04-19T14:40:29;99197.22;;;34.17;14.69
62164;BME280;48149;51.132;7.178;2023-04-19T14:42:54;99183.16;;;32.62;15.25
62164;BME280;48149;51.132;7.178;2023-04-19T14:45:20;99184.81;;;32.03;15.88
62164;BME280;48149;51.132;7.178;2023-04-19T14:47:45;99172.66;;;34.68;15.71
62164;BME280;48149;51.132;7.178;2023-04-19T14:50:10;99164.78;;;31.67;15.70